sensor_id;sensor_type;location;lat;lon;timestamp;P1;durP1;ratioP1;P2;durP2;ratioP2
44116;SDS011;29781;49.480;8.512;2023-05-07T00:00:46;5.15;;;3.08;;
44116;SDS011;29781;49.480;8.512;2023-05-07T00:03:11;3.65;;;3.28;;
44116;SDS011;29781;49.480;8.512;2023-05-07T00:05:38;5.78;;;3.70;;
44116;SDS011;29781;49.480;8.512;2023-05-07T00:08:04;4.32;;;3.83;;
44116;SDS011;29781;49.480;8.512;2023-05-07T00:10:29;4.20;;;3.25;;
44116;SDS011;29781;49.480;8.512;2023-05-07T00:12:55;3.92;;;3.38;;
44116;SDS011;29781;49.480;8.512;2023-05-07T00:15:21;6.00;;;3.35;;
44116;SDS011;29781;49.480;8.512;2023-05-07T00:17:46;6.50;;;3.80;;
44116;SDS011;29781;49.480;8.512;2023-05-07T00:20:12;4.25;;;3.60;;
44116;SDS011;29781;49.480;8.512;2023-05-07T00:22:37;4.53;;;3.80;;
44116;SDS011;29781;49.480;8.512;2023-05-07T00:25:03;4.38;;;3.80;;
44116;SDS011;29781;49.480;8.512;2023-05-07T00:27:29;5.60;;;3.70;;
44116;SDS011;29781;49.480;8.512;2023-05-07T00:29:54;7.18;;;3.65;;
44116;SDS011;29781;49.480;8.512;2023-05-07T00:32:20;5.30;;;3.90;;
44116;SDS011;29781;49.480;8.512;2023-05-07T00:34:46;5.38;;;3.83;;
44116;SDS011;29781;49.480;8.512;2023-05-07T00:37:11;5.18;;;3.65;;
44116;SDS011;29781;49.480;8.512;2023-05-07T00:39:37;4.95;;;3.90;;
44116;SDS011;29781;49.480;8.512;2023-05-07T00:42:02;6.13;;;4.20;;
44116;SDS011;29781;49.480;8.512;2023-05-07T00:44:28;7.20;;;3.65;;
44116;SDS011;29781;49.480;8.512;2023-05-07T00:46:54;5.07;;;3.63;;
44116;SDS011;29781;49.480;8.512;2023-05-07T00:49:22;6.70;;;3.85;;
44116;SDS011;29781;49.480;8.512;2023-05-07T00:51:51;4.00;;;3.70;;
44116;SDS011;29781;49.480;8.512;2023-05-07T00:54:17;4.68;;;3.63;;
44116;SDS011;29781;49.480;8.512;2023-05-07T00:56:43;4.03;;;3.67;;
44116;SDS011;29781;49.480;8.512;2023-05-07T00:59:09;4.90;;;4.00;;
44116;SDS011;29781;49.480;8.512;2023-05-07T01:01:35;4.20;;;3.63;;
44116;SDS011;29781;49.480;8.512;2023-05-07T01:04:01;7.43;;;4.18;;
44116;SDS011;29781;49.480;8.512;2023-05-07T01:06:27;5.03;;;3.63;;
44116;SDS011;29781;49.480;8.512;2023-05-07T01:08:55;4.32;;;3.95;;
44116;SDS011;29781;49.480;8.512;2023-05-07T01:11:22;4.03;;;3.63;;
44116;SDS011;29781;49.480;8.512;2023-05-07T01:13:48;5.32;;;3.75;;
44116;SDS011;29781;49.480;8.512;2023-05-07T01:16:15;5.57;;;3.97;;
44116;SDS011;29781;49.480;8.512;2023-05-07T01:18:41;7.65;;;3.40;;
44116;SDS011;29781;49.480;8.512;2023-05-07T01:21:06;5.07;;;3.75;;
44116;SDS011;29781;49.480;8.512;2023-05-07T01:23:35;4.70;;;3.60;;
44116;SDS011;29781;49.480;8.512;2023-05-07T01:26:01;5.05;;;3.90;;
44116;SDS011;29781;49.480;8.512;2023-05-07T01:28:27;3.95;;;3.63;;
44116;SDS011;29781;49.480;8.512;2023-05-07T01:30:53;3.55;;;3.25;;
44116;SDS011;29781;49.480;8.512;2023-05-07T01:33:22;5.07;;;3.60;;
44116;SDS011;29781;49.480;8.512;2023-05-07T01:35:50;6.28;;;3.50;;
44116;SDS011;29781;49.480;8.512;2023-05-07T01:38:18;5.78;;;3.25;;
44116;SDS011;29781;49.480;8.512;2023-05-07T01:40:45;4.18;;;3.67;;
44116;SDS011;29781;49.480;8.512;2023-05-07T01:43:11;3.70;;;3.10;;
44116;SDS011;29781;49.480;8.512;2023-05-07T01:45:37;3.53;;;3.20;;
44116;SDS011;29781;49.480;8.512;2023-05-07T01:48:03;3.42;;;3.13;;
44116;SDS011;29781;49.480;8.512;2023-05-07T01:50:32;4.43;;;3.08;;
44116;SDS011;29781;49.480;8.512;2023-05-07T01:52:58;4.13;;;3.05;;
44116;SDS011;29781;49.480;8.512;2023-05-07T01:55:24;4.97;;;3.03;;
44116;SDS011;29781;49.480;8.512;2023-05-07T01:57:50;3.58;;;3.25;;
44116;SDS011;29781;49.480;8.512;2023-05-07T02:00:15;3.78;;;3.47;;
44116;SDS011;29781;49.480;8.512;2023-05-07T02:02:42;3.50;;;3.20;;
44116;SDS011;29781;49.480;8.512;2023-05-07T02:05:08;4.78;;;2.97;;
44116;SDS011;29781;49.480;8.512;2023-05-07T02:07:33;10.68;;;3.15;;
44116;SDS011;29781;49.480;8.512;2023-05-07T02:09:59;4.90;;;3.40;;
44116;SDS011;29781;49.480;8.512;2023-05-07T02:12:24;3.88;;;3.35;;
44116;SDS011;29781;49.480;8.512;2023-05-07T02:14:50;5.45;;;3.47;;
44116;SDS011;29781;49.480;8.512;2023-05-07T02:17:15;3.55;;;3.25;;
44116;SDS011;29781;49.480;8.512;2023-05-07T02:19:41;4.10;;;3.70;;
44116;SDS011;29781;49.480;8.512;2023-05-07T02:22:07;4.68;;;3.50;;
44116;SDS011;29781;49.480;8.512;2023-05-07T02:24:32;4.50;;;3.90;;
44116;SDS011;29781;49.480;8.512;2023-05-07T02:26:58;4.75;;;3.72;;
44116;SDS011;29781;49.480;8.512;2023-05-07T02:29:23;4.35;;;3.65;;
44116;SDS011;29781;49.480;8.512;2023-05-07T02:31:49;4.75;;;3.33;;
44116;SDS011;29781;49.480;8.512;2023-05-07T02:34:16;4.63;;;3.65;;
44116;SDS011;29781;49.480;8.512;2023-05-07T02:36:42;3.88;;;3.47;;
44116;SDS011;29781;49.480;8.512;2023-05-07T02:39:07;4.20;;;3.80;;
44116;SDS011;29781;49.480;8.512;2023-05-07T02:41:33;3.70;;;3.33;;
44116;SDS011;29781;49.480;8.512;2023-05-07T02:43:58;3.45;;;3.15;;
44116;SDS011;29781;49.480;8.512;2023-05-07T02:46:24;7.80;;;3.53;;
44116;SDS011;29781;49.480;8.512;2023-05-07T02:48:50;5.40;;;3.60;;
44116;SDS011;29781;49.480;8.512;2023-05-07T02:51:17;6.07;;;4.03;;
44116;SDS011;29781;49.480;8.512;2023-05-07T02:53:44;5.38;;;4.20;;
44116;SDS011;29781;49.480;8.512;2023-05-07T02:56:10;5.30;;;3.83;;
44116;SDS011;29781;49.480;8.512;2023-05-07T02:58:36;4.30;;;3.90;;
44116;SDS011;29781;49.480;8.512;2023-05-07T03:01:01;5.25;;;3.92;;
44116;SDS011;29781;49.480;8.512;2023-05-07T03:03:27;6.38;;;3.88;;
44116;SDS011;29781;49.480;8.512;2023-05-07T03:05:52;4.88;;;4.10;;
44116;SDS011;29781;49.480;8.512;2023-05-07T03:08:18;4.88;;;3.90;;
44116;SDS011;29781;49.480;8.512;2023-05-07T03:10:43;4.90;;;4.45;;
44116;SDS011;29781;49.480;8.512;2023-05-07T03:13:09;4.32;;;3.92;;
44116;SDS011;29781;49.480;8.512;2023-05-07T03:15:35;6.15;;;3.95;;
44116;SDS011;29781;49.480;8.512;2023-05-07T03:18:01;3.90;;;3.60;;
44116;SDS011;29781;49.480;8.512;2023-05-07T03:20:26;6.00;;;3.78;;
44116;SDS011;29781;49.480;8.512;2023-05-07T03:22:52;3.97;;;3.67;;
44116;SDS011;29781;49.480;8.512;2023-05-07T03:25:18;4.45;;;4.05;;
44116;SDS011;29781;49.480;8.512;2023-05-07T03:27:43;5.32;;;3.83;;
44116;SDS011;29781;49.480;8.512;2023-05-07T03:30:09;4.50;;;3.50;;
44116;SDS011;29781;49.480;8.512;2023-05-07T03:32:35;5.45;;;3.95;;
44116;SDS011;29781;49.480;8.512;2023-05-07T03:35:01;5.28;;;3.80;;
44116;SDS011;29781;49.480;8.512;2023-05-07T03:37:27;6.60;;;3.40;;
44116;SDS011;29781;49.480;8.512;2023-05-07T03:39:52;3.88;;;3.25;;
44116;SDS011;29781;49.480;8.512;2023-05-07T03:42:18;4.32;;;3.83;;
44116;SDS011;29781;49.480;8.512;2023-05-07T03:44:44;3.95;;;3.65;;
44116;SDS011;29781;49.480;8.512;2023-05-07T03:47:09;5.20;;;3.60;;
44116;SDS011;29781;49.480;8.512;2023-05-07T03:49:35;7.05;;;3.63;;
44116;SDS011;29781;49.480;8.512;2023-05-07T03:52:01;4.53;;;3.88;;
44116;SDS011;29781;49.480;8.512;2023-05-07T03:54:26;4.70;;;3.75;;
44116;SDS011;29781;49.480;8.512;2023-05-07T03:56:52;7.50;;;4.10;;
44116;SDS011;29781;49.480;8.512;2023-05-07T03:59:17;3.88;;;3.47;;
44116;SDS011;29781;49.480;8.512;2023-05-07T04:01:43;5.38;;;4.88;;
44116;SDS011;29781;49.480;8.512;2023-05-07T04:04:08;5.32;;;3.67;;
44116;SDS011;29781;49.480;8.512;2023-05-07T04:06:34;4.82;;;3.75;;
44116;SDS011;29781;49.480;8.512;2023-05-07T04:08:59;7.20;;;3.95;;
44116;SDS011;29781;49.480;8.512;2023-05-07T04:11:25;4.25;;;3.78;;
44116;SDS011;29781;49.480;8.512;2023-05-07T04:13:50;5.30;;;3.67;;
44116;SDS011;29781;49.480;8.512;2023-05-07T04:16:16;4.20;;;3.72;;
44116;SDS011;29781;49.480;8.512;2023-05-07T04:18:41;5.15;;;4.00;;
44116;SDS011;29781;49.480;8.512;2023-05-07T04:21:13;4.00;;;3.65;;
44116;SDS011;29781;49.480;8.512;2023-05-07T04:23:43;4.05;;;3.45;;
44116;SDS011;29781;49.480;8.512;2023-05-07T04:26:09;4.82;;;3.50;;
44116;SDS011;29781;49.480;8.512;2023-05-07T04:28:35;3.67;;;3.33;;
44116;SDS011;29781;49.480;8.512;2023-05-07T04:31:01;3.58;;;3.28;;
44116;SDS011;29781;49.480;8.512;2023-05-07T04:33:26;7.53;;;3.65;;
44116;SDS011;29781;49.480;8.512;2023-05-07T04:35:52;6.15;;;4.00;;
44116;SDS011;29781;49.480;8.512;2023-05-07T04:38:17;4.90;;;3.60;;
44116;SDS011;29781;49.480;8.512;2023-05-07T04:40:43;4.20;;;3.80;;
44116;SDS011;29781;49.480;8.512;2023-05-07T04:43:09;4.50;;;4.10;;
44116;SDS011;29781;49.480;8.512;2023-05-07T04:45:35;5.18;;;3.95;;
44116;SDS011;29781;49.480;8.512;2023-05-07T04:48:01;6.50;;;4.53;;
44116;SDS011;29781;49.480;8.512;2023-05-07T04:50:26;5.38;;;3.70;;
44116;SDS011;29781;49.480;8.512;2023-05-07T04:52:52;6.63;;;3.90;;
44116;SDS011;29781;49.480;8.512;2023-05-07T04:55:17;7.85;;;4.40;;
44116;SDS011;29781;49.480;8.512;2023-05-07T04:57:43;4.18;;;3.78;;
44116;SDS011;29781;49.480;8.512;2023-05-07T05:00:09;4.82;;;3.50;;
44116;SDS011;29781;49.480;8.512;2023-05-07T05:02:35;7.97;;;3.90;;
44116;SDS011;29781;49.480;8.512;2023-05-07T05:05:01;4.47;;;3.50;;
44116;SDS011;29781;49.480;8.512;2023-05-07T05:07:27;4.45;;;3.80;;
44116;SDS011;29781;49.480;8.512;2023-05-07T05:09:53;8.32;;;3.80;;
44116;SDS011;29781;49.480;8.512;2023-05-07T05:12:19;4.25;;;3.88;;
44116;SDS011;29781;49.480;8.512;2023-05-07T05:14:45;5.18;;;3.42;;
44116;SDS011;29781;49.480;8.512;2023-05-07T05:17:10;8.32;;;4.15;;
44116;SDS011;29781;49.480;8.512;2023-05-07T05:19:36;3.63;;;3.33;;
44116;SDS011;29781;49.480;8.512;2023-05-07T05:22:01;6.22;;;3.90;;
44116;SDS011;29781;49.480;8.512;2023-05-07T05:24:28;5.18;;;3.83;;
44116;SDS011;29781;49.480;8.512;2023-05-07T05:26:54;6.72;;;4.03;;
44116;SDS011;29781;49.480;8.512;2023-05-07T05:29:20;4.15;;;3.72;;
44116;SDS011;29781;49.480;8.512;2023-05-07T05:31:46;4.07;;;3.42;;
44116;SDS011;29781;49.480;8.512;2023-05-07T05:34:11;4.28;;;3.38;;
44116;SDS011;29781;49.480;8.512;2023-05-07T05:36:36;4.88;;;3.58;;
44116;SDS011;29781;49.480;8.512;2023-05-07T05:39:02;4.70;;;3.40;;
44116;SDS011;29781;49.480;8.512;2023-05-07T05:41:28;4.70;;;3.70;;
44116;SDS011;29781;49.480;8.512;2023-05-07T05:43:53;4.32;;;3.00;;
44116;SDS011;29781;49.480;8.512;2023-05-07T05:46:19;6.03;;;3.80;;
44116;SDS011;29781;49.480;8.512;2023-05-07T05:48:44;4.43;;;3.45;;
44116;SDS011;29781;49.480;8.512;2023-05-07T05:51:10;6.35;;;3.30;;
44116;SDS011;29781;49.480;8.512;2023-05-07T05:53:35;5.30;;;3.28;;
44116;SDS011;29781;49.480;8.512;2023-05-07T05:56:01;4.70;;;3.63;;
44116;SDS011;29781;49.480;8.512;2023-05-07T05:58:27;4.00;;;3.40;;
44116;SDS011;29781;49.480;8.512;2023-05-07T06:00:53;5.18;;;3.88;;
44116;SDS011;29781;49.480;8.512;2023-05-07T06:03:18;7.40;;;3.50;;
44116;SDS011;29781;49.480;8.512;2023-05-07T06:05:44;4.47;;;3.88;;
44116;SDS011;29781;49.480;8.512;2023-05-07T06:08:10;5.85;;;3.83;;
44116;SDS011;29781;49.480;8.512;2023-05-07T06:10:38;4.88;;;3.72;;
44116;SDS011;29781;49.480;8.512;2023-05-07T06:13:04;5.40;;;3.85;;
44116;SDS011;29781;49.480;8.512;2023-05-07T06:15:30;8.13;;;3.72;;
44116;SDS011;29781;49.480;8.512;2023-05-07T06:17:55;5.88;;;4.00;;
44116;SDS011;29781;49.480;8.512;2023-05-07T06:20:22;4.53;;;3.53;;
44116;SDS011;29781;49.480;8.512;2023-05-07T06:22:48;5.15;;;3.65;;
44116;SDS011;29781;49.480;8.512;2023-05-07T06:25:13;3.92;;;3.53;;
44116;SDS011;29781;49.480;8.512;2023-05-07T06:27:39;5.65;;;3.50;;
44116;SDS011;29781;49.480;8.512;2023-05-07T06:30:05;5.63;;;3.38;;
44116;SDS011;29781;49.480;8.512;2023-05-07T06:32:31;3.97;;;3.42;;
44116;SDS011;29781;49.480;8.512;2023-05-07T06:34:57;5.20;;;3.60;;
44116;SDS011;29781;49.480;8.512;2023-05-07T06:37:22;3.90;;;3.50;;
44116;SDS011;29781;49.480;8.512;2023-05-07T06:39:48;4.25;;;3.63;;
44116;SDS011;29781;49.480;8.512;2023-05-07T06:42:13;3.85;;;3.22;;
44116;SDS011;29781;49.480;8.512;2023-05-07T06:44:39;4.70;;;3.58;;
44116;SDS011;29781;49.480;8.512;2023-05-07T06:47:04;4.10;;;3.17;;
44116;SDS011;29781;49.480;8.512;2023-05-07T06:49:30;11.65;;;3.83;;
44116;SDS011;29781;49.480;8.512;2023-05-07T06:51:56;4.55;;;3.28;;
44116;SDS011;29781;49.480;8.512;2023-05-07T06:54:22;8.07;;;3.47;;
44116;SDS011;29781;49.480;8.512;2023-05-07T06:56:48;5.15;;;3.67;;
44116;SDS011;29781;49.480;8.512;2023-05-07T06:59:13;4.03;;;3.67;;
44116;SDS011;29781;49.480;8.512;2023-05-07T07:01:39;4.50;;;3.70;;
44116;SDS011;29781;49.480;8.512;2023-05-07T07:04:05;4.70;;;3.30;;
44116;SDS011;29781;49.480;8.512;2023-05-07T07:06:30;4.13;;;3.72;;
44116;SDS011;29781;49.480;8.512;2023-05-07T07:08:57;4.82;;;2.92;;
44116;SDS011;29781;49.480;8.512;2023-05-07T07:11:23;5.97;;;3.15;;
44116;SDS011;29781;49.480;8.512;2023-05-07T07:13:48;4.78;;;2.95;;
44116;SDS011;29781;49.480;8.512;2023-05-07T07:16:14;3.13;;;2.80;;
44116;SDS011;29781;49.480;8.512;2023-05-07T07:18:39;4.15;;;2.80;;
44116;SDS011;29781;49.480;8.512;2023-05-07T07:21:05;4.25;;;2.97;;
44116;SDS011;29781;49.480;8.512;2023-05-07T07:23:30;4.35;;;2.55;;
44116;SDS011;29781;49.480;8.512;2023-05-07T07:25:56;2.92;;;2.63;;
44116;SDS011;29781;49.480;8.512;2023-05-07T07:28:21;4.88;;;2.20;;
44116;SDS011;29781;49.480;8.512;2023-05-07T07:30:47;2.83;;;2.40;;
44116;SDS011;29781;49.480;8.512;2023-05-07T07:33:13;2.85;;;2.50;;
44116;SDS011;29781;49.480;8.512;2023-05-07T07:35:39;3.10;;;2.35;;
44116;SDS011;29781;49.480;8.512;2023-05-07T07:38:05;4.80;;;2.72;;
44116;SDS011;29781;49.480;8.512;2023-05-07T07:40:30;3.92;;;2.70;;
44116;SDS011;29781;49.480;8.512;2023-05-07T07:42:56;4.03;;;2.90;;
44116;SDS011;29781;49.480;8.512;2023-05-07T07:45:21;4.03;;;2.72;;
44116;SDS011;29781;49.480;8.512;2023-05-07T07:47:47;3.53;;;2.35;;
44116;SDS011;29781;49.480;8.512;2023-05-07T07:50:13;2.60;;;2.40;;
44116;SDS011;29781;49.480;8.512;2023-05-07T07:52:38;2.58;;;2.38;;
44116;SDS011;29781;49.480;8.512;2023-05-07T07:55:04;2.50;;;2.30;;
44116;SDS011;29781;49.480;8.512;2023-05-07T07:57:30;3.13;;;2.45;;
44116;SDS011;29781;49.480;8.512;2023-05-07T07:59:56;3.05;;;2.33;;
44116;SDS011;29781;49.480;8.512;2023-05-07T08:02:21;4.13;;;2.90;;
44116;SDS011;29781;49.480;8.512;2023-05-07T08:04:47;4.15;;;2.63;;
44116;SDS011;29781;49.480;8.512;2023-05-07T08:07:12;3.88;;;2.60;;
44116;SDS011;29781;49.480;8.512;2023-05-07T08:09:38;4.05;;;2.28;;
44116;SDS011;29781;49.480;8.512;2023-05-07T08:12:07;6.00;;;2.85;;
44116;SDS011;29781;49.480;8.512;2023-05-07T08:14:33;3.33;;;2.70;;
44116;SDS011;29781;49.480;8.512;2023-05-07T08:16:59;4.57;;;3.47;;
44116;SDS011;29781;49.480;8.512;2023-05-07T08:19:25;4.63;;;3.50;;
44116;SDS011;29781;49.480;8.512;2023-05-07T08:21:50;3.65;;;3.05;;
44116;SDS011;29781;49.480;8.512;2023-05-07T08:24:16;4.93;;;3.17;;
44116;SDS011;29781;49.480;8.512;2023-05-07T08:26:43;4.40;;;3.53;;
44116;SDS011;29781;49.480;8.512;2023-05-07T08:29:09;4.22;;;3.10;;
44116;SDS011;29781;49.480;8.512;2023-05-07T08:31:34;3.22;;;2.97;;
44116;SDS011;29781;49.480;8.512;2023-05-07T08:34:00;3.75;;;2.90;;
44116;SDS011;29781;49.480;8.512;2023-05-07T08:36:26;4.57;;;2.95;;
44116;SDS011;29781;49.480;8.512;2023-05-07T08:38:52;5.18;;;3.08;;
44116;SDS011;29781;49.480;8.512;2023-05-07T08:41:17;6.68;;;3.15;;
44116;SDS011;29781;49.480;8.512;2023-05-07T08:43:46;5.88;;;3.13;;
44116;SDS011;29781;49.480;8.512;2023-05-07T08:46:13;4.35;;;3.05;;
44116;SDS011;29781;49.480;8.512;2023-05-07T08:48:44;3.72;;;2.60;;
44116;SDS011;29781;49.480;8.512;2023-05-07T08:51:11;3.75;;;3.15;;
44116;SDS011;29781;49.480;8.512;2023-05-07T08:53:42;2.58;;;2.22;;
44116;SDS011;29781;49.480;8.512;2023-05-07T08:56:08;3.38;;;2.80;;
44116;SDS011;29781;49.480;8.512;2023-05-07T08:58:34;5.60;;;3.10;;
44116;SDS011;29781;49.480;8.512;2023-05-07T09:01:15;6.18;;;3.42;;
44116;SDS011;29781;49.480;8.512;2023-05-07T09:03:41;2.88;;;2.67;;
44116;SDS011;29781;49.480;8.512;2023-05-07T09:06:09;4.20;;;2.75;;
44116;SDS011;29781;49.480;8.512;2023-05-07T09:08:35;3.42;;;3.13;;
44116;SDS011;29781;49.480;8.512;2023-05-07T09:11:01;7.60;;;3.03;;
44116;SDS011;29781;49.480;8.512;2023-05-07T09:13:27;2.78;;;2.40;;
44116;SDS011;29781;49.480;8.512;2023-05-07T09:15:53;2.70;;;2.50;;
44116;SDS011;29781;49.480;8.512;2023-05-07T09:18:19;3.58;;;2.42;;
44116;SDS011;29781;49.480;8.512;2023-05-07T09:20:44;3.35;;;2.55;;
44116;SDS011;29781;49.480;8.512;2023-05-07T09:23:10;3.03;;;2.75;;
44116;SDS011;29781;49.480;8.512;2023-05-07T09:25:35;4.07;;;2.53;;
44116;SDS011;29781;49.480;8.512;2023-05-07T09:28:02;2.50;;;2.30;;
44116;SDS011;29781;49.480;8.512;2023-05-07T09:30:29;3.13;;;2.60;;
44116;SDS011;29781;49.480;8.512;2023-05-07T09:32:56;3.28;;;2.90;;
44116;SDS011;29781;49.480;8.512;2023-05-07T09:35:23;4.57;;;2.95;;
44116;SDS011;29781;49.480;8.512;2023-05-07T09:37:52;3.90;;;2.97;;
44116;SDS011;29781;49.480;8.512;2023-05-07T09:40:28;4.43;;;2.70;;
44116;SDS011;29781;49.480;8.512;2023-05-07T09:42:55;8.25;;;2.33;;
44116;SDS011;29781;49.480;8.512;2023-05-07T09:45:27;3.03;;;2.30;;
44116;SDS011;29781;49.480;8.512;2023-05-07T09:47:57;2.92;;;2.65;;
44116;SDS011;29781;49.480;8.512;2023-05-07T09:50:27;3.55;;;2.17;;
44116;SDS011;29781;49.480;8.512;2023-05-07T09:52:55;3.08;;;2.50;;
44116;SDS011;29781;49.480;8.512;2023-05-07T09:55:21;3.67;;;2.15;;
44116;SDS011;29781;49.480;8.512;2023-05-07T09:57:50;4.20;;;2.30;;
44116;SDS011;29781;49.480;8.512;2023-05-07T10:00:17;2.45;;;2.15;;
44116;SDS011;29781;49.480;8.512;2023-05-07T10:02:44;3.13;;;2.00;;
44116;SDS011;29781;49.480;8.512;2023-05-07T10:05:13;2.80;;;2.20;;
44116;SDS011;29781;49.480;8.512;2023-05-07T10:07:40;5.22;;;2.20;;
44116;SDS011;29781;49.480;8.512;2023-05-07T10:10:06;2.50;;;2.30;;
44116;SDS011;29781;49.480;8.512;2023-05-07T10:12:32;5.07;;;2.10;;
44116;SDS011;29781;49.480;8.512;2023-05-07T10:15:04;3.05;;;2.30;;
44116;SDS011;29781;49.480;8.512;2023-05-07T10:17:35;7.55;;;2.45;;
44116;SDS011;29781;49.480;8.512;2023-05-07T10:20:02;2.42;;;2.03;;
44116;SDS011;29781;49.480;8.512;2023-05-07T10:22:29;5.95;;;2.20;;
44116;SDS011;29781;49.480;8.512;2023-05-07T10:24:57;2.90;;;2.20;;
44116;SDS011;29781;49.480;8.512;2023-05-07T10:27:27;3.45;;;2.10;;
44116;SDS011;29781;49.480;8.512;2023-05-07T10:32:47;3.38;;;2.22;;
44116;SDS011;29781;49.480;8.512;2023-05-07T10:35:17;3.35;;;2.25;;
44116;SDS011;29781;49.480;8.512;2023-05-07T10:37:46;2.40;;;1.92;;
44116;SDS011;29781;49.480;8.512;2023-05-07T10:40:12;2.38;;;2.17;;
44116;SDS011;29781;49.480;8.512;2023-05-07T10:42:38;4.75;;;2.20;;
44116;SDS011;29781;49.480;8.512;2023-05-07T10:45:17;5.50;;;1.98;;
44116;SDS011;29781;49.480;8.512;2023-05-07T10:50:30;1.88;;;1.77;;
44116;SDS011;29781;49.480;8.512;2023-05-07T10:55:43;3.38;;;2.15;;
44116;SDS011;29781;49.480;8.512;2023-05-07T10:58:25;4.00;;;2.10;;
44116;SDS011;29781;49.480;8.512;2023-05-07T11:00:58;3.92;;;2.13;;
44116;SDS011;29781;49.480;8.512;2023-05-07T11:11:17;2.80;;;2.10;;
44116;SDS011;29781;49.480;8.512;2023-05-07T11:13:45;3.33;;;2.53;;
44116;SDS011;29781;49.480;8.512;2023-05-07T11:16:18;2.90;;;2.10;;
44116;SDS011;29781;49.480;8.512;2023-05-07T11:18:52;3.17;;;2.25;;
44116;SDS011;29781;49.480;8.512;2023-05-07T11:24:03;3.05;;;2.08;;
44116;SDS011;29781;49.480;8.512;2023-05-07T11:26:30;4.72;;;2.20;;
44116;SDS011;29781;49.480;8.512;2023-05-07T11:29:10;2.08;;;1.90;;
44116;SDS011;29781;49.480;8.512;2023-05-07T11:31:36;3.70;;;1.80;;
44116;SDS011;29781;49.480;8.512;2023-05-07T11:34:02;3.08;;;2.15;;
44116;SDS011;29781;49.480;8.512;2023-05-07T11:36:30;2.67;;;1.80;;
44116;SDS011;29781;49.480;8.512;2023-05-07T11:38:57;2.15;;;1.75;;
44116;SDS011;29781;49.480;8.512;2023-05-07T11:41:22;2.30;;;1.70;;
44116;SDS011;29781;49.480;8.512;2023-05-07T11:43:58;3.80;;;1.90;;
44116;SDS011;29781;49.480;8.512;2023-05-07T11:46:24;2.28;;;2.08;;
44116;SDS011;29781;49.480;8.512;2023-05-07T11:48:51;5.13;;;1.70;;
44116;SDS011;29781;49.480;8.512;2023-05-07T11:51:20;2.63;;;2.22;;
44116;SDS011;29781;49.480;8.512;2023-05-07T11:53:47;1.90;;;1.80;;
44116;SDS011;29781;49.480;8.512;2023-05-07T11:56:14;2.05;;;1.80;;
44116;SDS011;29781;49.480;8.512;2023-05-07T11:58:42;2.15;;;1.95;;
44116;SDS011;29781;49.480;8.512;2023-05-07T12:01:09;2.03;;;1.80;;
44116;SDS011;29781;49.480;8.512;2023-05-07T12:03:36;2.47;;;1.67;;
44116;SDS011;29781;49.480;8.512;2023-05-07T12:06:07;3.13;;;1.92;;
44116;SDS011;29781;49.480;8.512;2023-05-07T12:08:35;3.58;;;2.00;;
44116;SDS011;29781;49.480;8.512;2023-05-07T12:11:02;1.92;;;1.70;;
44116;SDS011;29781;49.480;8.512;2023-05-07T12:13:31;2.47;;;2.00;;
44116;SDS011;29781;49.480;8.512;2023-05-07T12:15:57;1.98;;;1.88;;
44116;SDS011;29781;49.480;8.512;2023-05-07T12:18:22;4.13;;;2.15;;
44116;SDS011;29781;49.480;8.512;2023-05-07T12:20:49;5.85;;;2.25;;
44116;SDS011;29781;49.480;8.512;2023-05-07T12:23:15;4.50;;;1.98;;
44116;SDS011;29781;49.480;8.512;2023-05-07T12:25:42;3.40;;;1.77;;
44116;SDS011;29781;49.480;8.512;2023-05-07T12:28:14;2.80;;;2.08;;
44116;SDS011;29781;49.480;8.512;2023-05-07T12:30:44;4.47;;;2.20;;
44116;SDS011;29781;49.480;8.512;2023-05-07T12:35:41;2.72;;;1.88;;
44116;SDS011;29781;49.480;8.512;2023-05-07T12:38:08;1.92;;;1.70;;
44116;SDS011;29781;49.480;8.512;2023-05-07T12:40:38;2.08;;;1.88;;
44116;SDS011;29781;49.480;8.512;2023-05-07T12:43:08;2.10;;;1.77;;
44116;SDS011;29781;49.480;8.512;2023-05-07T12:45:44;1.75;;;1.63;;
44116;SDS011;29781;49.480;8.512;2023-05-07T12:48:11;4.45;;;1.90;;
44116;SDS011;29781;49.480;8.512;2023-05-07T12:50:37;4.18;;;2.28;;
44116;SDS011;29781;49.480;8.512;2023-05-07T12:53:03;2.40;;;2.00;;
44116;SDS011;29781;49.480;8.512;2023-05-07T12:55:34;3.47;;;2.10;;
44116;SDS011;29781;49.480;8.512;2023-05-07T12:58:05;8.43;;;1.90;;
44116;SDS011;29781;49.480;8.512;2023-05-07T13:00:37;3.05;;;2.08;;
44116;SDS011;29781;49.480;8.512;2023-05-07T13:03:04;3.03;;;1.70;;
44116;SDS011;29781;49.480;8.512;2023-05-07T13:05:30;3.25;;;1.88;;
44116;SDS011;29781;49.480;8.512;2023-05-07T13:07:56;1.67;;;1.55;;
44116;SDS011;29781;49.480;8.512;2023-05-07T13:10:23;1.92;;;1.70;;
44116;SDS011;29781;49.480;8.512;2023-05-07T13:12:49;4.20;;;1.60;;
44116;SDS011;29781;49.480;8.512;2023-05-07T13:15:15;2.10;;;1.90;;
44116;SDS011;29781;49.480;8.512;2023-05-07T13:17:41;1.88;;;1.70;;
44116;SDS011;29781;49.480;8.512;2023-05-07T13:20:08;1.80;;;1.70;;
44116;SDS011;29781;49.480;8.512;2023-05-07T13:22:34;2.72;;;1.95;;
44116;SDS011;29781;49.480;8.512;2023-05-07T13:25:00;2.53;;;2.03;;
44116;SDS011;29781;49.480;8.512;2023-05-07T13:27:26;2.30;;;1.70;;
44116;SDS011;29781;49.480;8.512;2023-05-07T13:29:51;2.20;;;1.70;;
44116;SDS011;29781;49.480;8.512;2023-05-07T13:32:17;1.77;;;1.60;;
44116;SDS011;29781;49.480;8.512;2023-05-07T13:34:43;1.70;;;1.52;;
44116;SDS011;29781;49.480;8.512;2023-05-07T13:37:08;4.70;;;2.00;;
44116;SDS011;29781;49.480;8.512;2023-05-07T13:39:34;1.67;;;1.45;;
44116;SDS011;29781;49.480;8.512;2023-05-07T13:41:59;3.15;;;1.85;;
44116;SDS011;29781;49.480;8.512;2023-05-07T13:44:25;1.98;;;1.77;;
44116;SDS011;29781;49.480;8.512;2023-05-07T13:46:51;2.42;;;2.05;;
44116;SDS011;29781;49.480;8.512;2023-05-07T13:49:17;2.60;;;2.00;;
44116;SDS011;29781;49.480;8.512;2023-05-07T13:51:42;3.78;;;2.13;;
44116;SDS011;29781;49.480;8.512;2023-05-07T13:54:08;2.30;;;2.10;;
44116;SDS011;29781;49.480;8.512;2023-05-07T13:56:33;3.38;;;2.20;;
44116;SDS011;29781;49.480;8.512;2023-05-07T13:58:59;3.22;;;2.13;;
44116;SDS011;29781;49.480;8.512;2023-05-07T14:01:24;3.35;;;2.15;;
44116;SDS011;29781;49.480;8.512;2023-05-07T14:03:50;8.70;;;2.28;;
44116;SDS011;29781;49.480;8.512;2023-05-07T14:06:15;5.25;;;2.33;;
44116;SDS011;29781;49.480;8.512;2023-05-07T14:08:41;3.50;;;2.17;;
44116;SDS011;29781;49.480;8.512;2023-05-07T14:11:07;2.05;;;1.73;;
44116;SDS011;29781;49.480;8.512;2023-05-07T14:13:32;12.35;;;2.35;;
44116;SDS011;29781;49.480;8.512;2023-05-07T14:15:59;2.80;;;1.85;;
44116;SDS011;29781;49.480;8.512;2023-05-07T14:18:25;8.93;;;2.83;;
44116;SDS011;29781;49.480;8.512;2023-05-07T14:20:51;10.27;;;3.75;;
44116;SDS011;29781;49.480;8.512;2023-05-07T14:23:16;19.73;;;5.13;;
44116;SDS011;29781;49.480;8.512;2023-05-07T14:25:47;11.43;;;4.03;;
44116;SDS011;29781;49.480;8.512;2023-05-07T14:28:12;10.15;;;3.38;;
44116;SDS011;29781;49.480;8.512;2023-05-07T14:30:38;9.45;;;3.50;;
44116;SDS011;29781;49.480;8.512;2023-05-07T14:33:04;10.60;;;4.10;;
44116;SDS011;29781;49.480;8.512;2023-05-07T14:35:29;12.80;;;3.90;;
44116;SDS011;29781;49.480;8.512;2023-05-07T14:37:55;7.85;;;3.08;;
44116;SDS011;29781;49.480;8.512;2023-05-07T14:40:21;9.63;;;3.50;;
44116;SDS011;29781;49.480;8.512;2023-05-07T14:42:46;10.70;;;3.47;;
44116;SDS011;29781;49.480;8.512;2023-05-07T14:45:12;8.70;;;3.50;;
44116;SDS011;29781;49.480;8.512;2023-05-07T14:47:37;7.63;;;3.90;;
44116;SDS011;29781;49.480;8.512;2023-05-07T14:50:03;11.15;;;4.05;;
44116;SDS011;29781;49.480;8.512;2023-05-07T14:52:29;10.55;;;3.75;;
44116;SDS011;29781;49.480;8.512;2023-05-07T14:54:54;4.65;;;3.50;;
44116;SDS011;29781;49.480;8.512;2023-05-07T14:57:20;8.68;;;3.95;;
44116;SDS011;29781;49.480;8.512;2023-05-07T14:59:45;4.75;;;3.63;;
44116;SDS011;29781;49.480;8.512;2023-05-07T15:02:12;7.03;;;4.40;;
44116;SDS011;29781;49.480;8.512;2023-05-07T15:04:38;6.30;;;4.38;;